createdAt,value
2022-12-05T00:00:28.774Z,4.36
2022-12-05T00:03:13.224Z,4.10
2022-12-05T00:05:56.261Z,4.23
2022-12-05T00:08:39.512Z,4.16
2022-12-05T00:11:25.016Z,4.10
2022-12-05T00:14:09.515Z,4.13
2022-12-05T00:16:52.663Z,4.10
2022-12-05T00:19:37.134Z,4.06
2022-12-05T00:22:20.201Z,4.11
2022-12-05T00:25:03.235Z,4.13
2022-12-05T00:27:46.235Z,4.19
2022-12-05T00:30:29.253Z,4.01
2022-12-05T00:33:12.287Z,3.99
2022-12-05T00:35:56.676Z,3.94
2022-12-05T00:38:39.957Z,4.00
2022-12-05T00:41:24.760Z,3.94
2022-12-05T00:44:07.998Z,3.91
2022-12-05T00:46:51.066Z,4.06
2022-12-05T00:49:34.375Z,4.12
2022-12-05T00:52:18.958Z,4.09
2022-12-05T00:55:01.941Z,4.13
2022-12-05T00:57:44.961Z,4.08
2022-12-05T01:00:27.960Z,4.19
2022-12-05T01:03:11.291Z,4.22
2022-12-05T01:05:54.410Z,4.13
2022-12-05T01:08:39.388Z,4.14
2022-12-05T01:11:23.309Z,4.15
2022-12-05T01:14:06.629Z,4.20
2022-12-05T01:16:51.554Z,4.25
2022-12-05T01:19:34.888Z,4.41
2022-12-05T01:22:18.116Z,4.44
2022-12-05T01:25:03.051Z,4.59
2022-12-05T01:27:46.104Z,4.63
2022-12-05T01:30:29.142Z,4.72
2022-12-05T01:33:12.893Z,4.72
2022-12-05T01:35:55.899Z,4.82
2022-12-05T01:38:40.215Z,4.80
2022-12-05T01:41:26.371Z,4.74
2022-12-05T01:44:25.164Z,4.73
2022-12-05T01:47:09.837Z,4.66
2022-12-05T01:49:52.995Z,4.71
2022-12-05T01:52:37.204Z,4.67
2022-12-05T01:55:20.808Z,4.58
2022-12-05T01:58:09.012Z,4.56
2022-12-05T02:00:52.425Z,4.56
2022-12-05T02:03:38.990Z,4.64
2022-12-05T02:06:23.101Z,4.77
2022-12-05T02:09:07.108Z,4.88
2022-12-05T02:11:54.266Z,4.72
2022-12-05T02:14:47.994Z,4.72
2022-12-05T02:17:40.506Z,4.82
2022-12-05T02:20:34.942Z,4.82
2022-12-05T02:23:30.692Z,4.97
2022-12-05T02:26:37.472Z,4.97
2022-12-05T02:30:03.042Z,4.97
2022-12-05T02:32:57.243Z,5.06
2022-12-05T02:35:52.718Z,5.02
2022-12-05T02:38:41.440Z,5.07
2022-12-05T02:41:32.787Z,5.01
2022-12-05T02:44:20.052Z,5.12
2022-12-05T02:47:06.023Z,5.25
2022-12-05T02:49:51.233Z,5.35
2022-12-05T02:52:36.004Z,5.48
2022-12-05T02:55:21.767Z,5.41
2022-12-05T02:58:08.788Z,5.51
2022-12-05T03:00:56.802Z,5.51
2022-12-05T03:03:41.445Z,5.34
2022-12-05T03:06:29.053Z,5.12
2022-12-05T03:09:16.769Z,5.25
2022-12-05T03:12:06.933Z,5.29
2022-12-05T03:14:56.067Z,5.28
2022-12-05T03:17:44.857Z,5.28
2022-12-05T03:20:33.192Z,5.40
2022-12-05T03:23:21.466Z,5.46
2022-12-05T03:26:14.509Z,5.45
2022-12-05T03:29:10.215Z,5.53
2022-12-05T03:32:04.494Z,5.47
2022-12-05T03:34:56.837Z,5.53
2022-12-05T03:37:50.664Z,5.47
2022-12-05T03:40:42.925Z,5.57
2022-12-05T03:43:35.654Z,5.41
2022-12-05T03:46:26.111Z,5.41
2022-12-05T03:49:14.495Z,5.42
2022-12-05T03:52:04.827Z,5.34
2022-12-05T03:54:52.780Z,5.43
2022-12-05T03:57:40.190Z,5.50
2022-12-05T04:00:25.451Z,5.41
2022-12-05T04:03:12.588Z,5.47
2022-12-05T04:05:58.932Z,5.56
2022-12-05T04:08:45.620Z,5.45
2022-12-05T04:11:34.382Z,5.47
2022-12-05T04:14:21.471Z,5.45
2022-12-05T04:17:06.721Z,5.47
2022-12-05T04:20:17.673Z,5.39
2022-12-05T04:23:01.517Z,5.40
2022-12-05T04:25:59.963Z,5.40
2022-12-05T04:28:52.875Z,5.32
2022-12-05T04:31:42.101Z,5.39
2022-12-05T04:34:28.543Z,5.33
2022-12-05T04:37:16.644Z,5.26
2022-12-05T04:40:05.223Z,5.31
2022-12-05T04:42:51.002Z,5.36
2022-12-05T04:45:38.128Z,5.31
2022-12-05T04:48:24.096Z,5.22
2022-12-05T04:51:10.391Z,5.25
2022-12-05T04:53:59.575Z,5.25
2022-12-05T04:56:45.446Z,5.31
2022-12-05T04:59:28.626Z,5.37
2022-12-05T05:02:18.396Z,5.32
2022-12-05T05:05:03.757Z,5.30
2022-12-05T05:07:48.547Z,5.33
2022-12-05T05:10:43.187Z,5.41
2022-12-05T05:13:26.435Z,5.46
2022-12-05T05:16:10.346Z,5.49
2022-12-05T05:18:54.992Z,5.31
2022-12-05T05:21:40.284Z,5.32
2022-12-05T05:24:23.723Z,5.26
2022-12-05T05:27:06.761Z,5.39
2022-12-05T05:29:49.847Z,5.45
2022-12-05T05:32:34.106Z,5.49
2022-12-05T05:35:19.119Z,5.46
2022-12-05T05:38:02.076Z,5.43
2022-12-05T05:40:45.085Z,5.50
2022-12-05T05:43:28.242Z,5.44
2022-12-05T05:46:12.188Z,5.48
2022-12-05T05:48:55.480Z,5.52
2022-12-05T05:51:39.917Z,5.49
2022-12-05T05:54:23.018Z,5.44
2022-12-05T05:57:06.084Z,5.56
2022-12-05T05:59:49.116Z,5.57
2022-12-05T06:02:34.017Z,5.49
2022-12-05T06:05:17.325Z,5.44
2022-12-05T06:08:02.839Z,5.45
2022-12-05T06:10:45.899Z,5.47
2022-12-05T06:13:28.854Z,5.48
2022-12-05T06:16:14.187Z,5.51
2022-12-05T06:18:57.310Z,5.48
2022-12-05T06:21:40.393Z,5.50
2022-12-05T06:24:24.771Z,5.43
2022-12-05T06:27:07.856Z,5.42
2022-12-05T06:29:50.916Z,5.38
2022-12-05T06:32:33.927Z,5.45
2022-12-05T06:35:17.153Z,5.49
2022-12-05T06:38:00.270Z,5.45
2022-12-05T06:40:45.796Z,5.41
2022-12-05T06:43:28.862Z,5.50
2022-12-05T06:46:13.767Z,5.64
2022-12-05T06:48:58.225Z,5.56
2022-12-05T06:51:41.290Z,5.54
2022-12-05T06:54:24.372Z,5.48
2022-12-05T06:57:09.790Z,5.67
2022-12-05T07:00:12.835Z,5.46
2022-12-05T07:02:54.828Z,5.69
2022-12-05T07:05:37.907Z,5.76
2022-12-05T07:08:21.005Z,5.61
2022-12-05T07:11:04.997Z,5.68
2022-12-05T07:13:49.518Z,5.76
2022-12-05T07:16:33.009Z,5.89
2022-12-05T07:19:16.100Z,5.95
2022-12-05T07:21:59.256Z,5.97
2022-12-05T07:24:42.398Z,6.17
2022-12-05T07:27:27.928Z,6.10
2022-12-05T07:30:13.507Z,6.14
2022-12-05T07:32:56.521Z,6.11
2022-12-05T07:35:39.591Z,6.14
2022-12-05T07:38:22.671Z,6.19
2022-12-05T07:41:12.740Z,6.10
2022-12-05T07:43:58.098Z,6.22
2022-12-05T07:46:42.504Z,6.10
2022-12-05T07:49:25.567Z,6.05
2022-12-05T07:52:09.606Z,6.15
2022-12-05T07:54:52.615Z,6.13
2022-12-05T07:57:35.803Z,6.27
2022-12-05T08:00:20.144Z,6.36
2022-12-05T08:03:05.374Z,6.33
2022-12-05T08:05:48.495Z,6.39
2022-12-05T08:08:31.700Z,6.36
2022-12-05T08:11:17.146Z,6.56
2022-12-05T08:14:00.283Z,6.68
2022-12-05T08:16:43.400Z,6.90
2022-12-05T08:19:28.300Z,6.85
2022-12-05T08:22:11.383Z,7.06
2022-12-05T08:24:56.381Z,7.23
2022-12-05T08:27:39.581Z,7.30
2022-12-05T08:30:23.087Z,7.37
2022-12-05T08:33:06.220Z,7.40
2022-12-05T08:35:50.675Z,7.20
2022-12-05T08:38:33.821Z,7.47
2022-12-05T08:41:19.084Z,7.51
2022-12-05T08:44:05.529Z,7.57
2022-12-05T08:46:50.784Z,7.62
2022-12-05T08:49:33.966Z,7.26
2022-12-05T08:52:18.376Z,7.47
2022-12-05T08:55:01.471Z,7.39
2022-12-05T08:57:44.538Z,7.49
2022-12-05T09:00:27.541Z,7.59
2022-12-05T09:03:12.183Z,7.71
2022-12-05T09:05:55.233Z,7.86
2022-12-05T09:08:40.061Z,8.03
2022-12-05T09:11:24.741Z,7.90
2022-12-05T09:14:07.906Z,7.99
2022-12-05T09:16:50.926Z,8.21
2022-12-05T09:19:34.136Z,8.41
2022-12-05T09:22:18.308Z,8.36
2022-12-05T09:25:02.745Z,8.19
2022-12-05T09:27:46.696Z,8.31
2022-12-05T09:30:29.871Z,8.22
2022-12-05T09:33:12.959Z,8.38
2022-12-05T09:35:56.174Z,8.36
2022-12-05T09:38:39.262Z,8.31
2022-12-05T09:42:06.131Z,8.52
2022-12-05T09:45:03.333Z,8.35
2022-12-05T09:47:53.430Z,8.29
2022-12-05T09:50:45.760Z,8.08
2022-12-05T09:53:31.873Z,8.32
2022-12-05T09:56:22.914Z,8.34
2022-12-05T09:59:13.610Z,8.41
2022-12-05T10:02:07.384Z,8.31
2022-12-05T10:05:00.893Z,8.48
2022-12-05T10:07:52.803Z,8.49
2022-12-05T10:10:47.276Z,8.47
2022-12-05T10:13:47.055Z,8.55
2022-12-05T10:16:35.130Z,8.57
2022-12-05T10:19:25.681Z,8.70
2022-12-05T10:22:20.514Z,8.38
2022-12-05T10:25:06.733Z,8.21
2022-12-05T10:27:53.171Z,7.77
2022-12-05T10:30:37.426Z,7.89
2022-12-05T10:33:25.200Z,8.02
2022-12-05T10:36:12.625Z,8.07
2022-12-05T10:38:56.848Z,8.07
2022-12-05T10:41:39.967Z,8.00
2022-12-05T10:44:23.099Z,8.28
2022-12-05T10:47:06.454Z,8.43
2022-12-05T10:49:51.641Z,8.31
2022-12-05T10:52:35.602Z,8.09
2022-12-05T10:55:19.886Z,8.00
2022-12-05T10:58:17.578Z,8.14
2022-12-05T11:01:10.142Z,8.15
2022-12-05T11:03:58.676Z,7.92
2022-12-05T11:06:51.975Z,7.95
2022-12-05T11:09:37.029Z,8.09
2022-12-05T11:12:22.223Z,8.10
2022-12-05T11:15:21.732Z,8.04
2022-12-05T11:18:20.494Z,7.94
2022-12-05T11:21:12.526Z,7.79
2022-12-05T11:23:57.516Z,7.71
2022-12-05T11:26:41.212Z,7.69
2022-12-05T11:29:33.314Z,7.61
2022-12-05T11:32:20.306Z,7.61
2022-12-05T11:35:13.812Z,7.77
2022-12-05T11:38:00.834Z,7.87
2022-12-05T11:40:54.632Z,7.93
2022-12-05T11:43:54.634Z,7.72
2022-12-05T11:46:49.614Z,7.78
2022-12-05T11:49:53.851Z,7.83
2022-12-05T11:52:48.774Z,7.49
2022-12-05T11:55:39.352Z,7.62
2022-12-05T11:58:53.681Z,7.44
2022-12-05T12:01:48.488Z,7.33
2022-12-05T12:04:47.751Z,7.22
2022-12-05T12:07:50.918Z,7.24
2022-12-05T12:10:44.353Z,7.03
2022-12-05T12:13:40.241Z,6.93
2022-12-05T12:16:35.437Z,6.90
2022-12-05T12:19:36.560Z,6.75
2022-12-05T12:22:45.774Z,6.84
2022-12-05T12:25:40.066Z,6.86
2022-12-05T12:28:35.136Z,6.89
2022-12-05T12:31:56.818Z,6.94
2022-12-05T12:35:04.610Z,6.99
2022-12-05T12:38:01.411Z,6.89
2022-12-05T12:40:50.117Z,6.86
2022-12-05T12:43:54.925Z,6.85
2022-12-05T12:46:49.848Z,6.88
2022-12-05T12:49:47.162Z,6.71
2022-12-05T12:52:47.107Z,6.89
2022-12-05T12:55:37.852Z,6.62
2022-12-05T12:58:45.366Z,6.76
2022-12-05T13:01:38.142Z,6.84
2022-12-05T13:04:26.861Z,6.72
2022-12-05T13:07:15.283Z,6.69
2022-12-05T13:10:03.287Z,6.64
2022-12-05T13:12:48.139Z,6.41
2022-12-05T13:15:37.336Z,6.51
2022-12-05T13:18:22.645Z,6.44
2022-12-05T13:21:10.614Z,6.35
2022-12-05T13:23:57.072Z,6.42
2022-12-05T13:26:49.784Z,6.35
2022-12-05T13:29:36.042Z,6.43
2022-12-05T13:32:29.059Z,6.37
2022-12-05T13:35:13.640Z,6.51
2022-12-05T13:38:15.486Z,6.61
2022-12-05T13:41:16.026Z,6.65
2022-12-05T13:44:06.453Z,6.41
2022-12-05T13:46:51.258Z,6.29
2022-12-05T13:49:43.593Z,6.38
2022-12-05T13:52:30.295Z,6.32
2022-12-05T13:55:24.029Z,6.18
2022-12-05T13:58:38.987Z,6.28
2022-12-05T14:01:50.406Z,6.36
2022-12-05T14:04:53.912Z,6.31
2022-12-05T14:07:45.398Z,6.31
2022-12-05T14:11:10.993Z,6.44
2022-12-05T14:13:58.015Z,6.33
2022-12-05T14:16:46.560Z,6.35
2022-12-05T14:19:51.987Z,6.22
2022-12-05T14:22:50.453Z,6.36
2022-12-05T14:26:07.138Z,6.48
2022-12-05T14:29:06.380Z,6.57
2022-12-05T14:32:04.889Z,6.39
2022-12-05T14:34:56.096Z,6.46
2022-12-05T14:37:45.571Z,6.58
2022-12-05T14:40:34.054Z,6.34
2022-12-05T14:43:23.213Z,6.29
2022-12-05T14:46:09.077Z,6.39
2022-12-05T14:48:52.322Z,6.43
2022-12-05T14:51:57.596Z,6.37
2022-12-05T14:54:41.587Z,6.42
2022-12-05T14:57:25.469Z,6.50
2022-12-05T15:00:21.378Z,6.49
2022-12-05T15:03:06.232Z,6.52
2022-12-05T15:05:49.557Z,6.47
2022-12-05T15:08:40.643Z,6.50
2022-12-05T15:11:29.447Z,6.44
2022-12-05T15:14:20.254Z,6.48
2022-12-05T15:17:04.709Z,6.45
2022-12-05T15:19:56.505Z,6.42
2022-12-05T15:22:39.831Z,6.37
2022-12-05T15:25:29.026Z,6.26
2022-12-05T15:28:20.561Z,6.11
2022-12-05T15:31:03.996Z,6.25
2022-12-05T15:33:55.246Z,6.30
2022-12-05T15:36:40.995Z,6.36
2022-12-05T15:39:26.637Z,6.47
2022-12-05T15:42:16.559Z,6.42
2022-12-05T15:45:22.112Z,6.39
2022-12-05T15:48:15.313Z,6.55
2022-12-05T15:51:04.183Z,6.56
2022-12-05T15:53:51.976Z,6.72
2022-12-05T15:56:38.183Z,6.66
2022-12-05T15:59:26.429Z,6.65
2022-12-05T16:02:17.382Z,6.49
2022-12-05T16:05:01.336Z,6.41
2022-12-05T16:07:46.589Z,6.29
2022-12-05T16:10:31.780Z,6.44
2022-12-05T16:13:17.294Z,6.35
2022-12-05T16:16:00.414Z,6.38
2022-12-05T16:18:50.739Z,6.39
2022-12-05T16:21:38.893Z,6.38
2022-12-05T16:24:29.926Z,6.23
2022-12-05T16:27:17.022Z,6.30
2022-12-05T16:30:18.117Z,6.27
2022-12-05T16:33:04.110Z,6.22
2022-12-05T16:35:49.050Z,6.25
2022-12-05T16:38:32.405Z,6.27
2022-12-05T16:41:18.140Z,6.36
2022-12-05T16:44:01.236Z,6.34
2022-12-05T16:46:47.540Z,6.42
2022-12-05T16:49:35.407Z,6.35
2022-12-05T16:52:19.028Z,6.32
2022-12-05T16:55:02.206Z,6.29
2022-12-05T16:57:46.735Z,6.17
2022-12-05T17:00:31.315Z,6.09
2022-12-05T17:03:35.625Z,6.08
2022-12-05T17:06:19.472Z,6.12
2022-12-05T17:09:02.777Z,6.13
2022-12-05T17:11:48.140Z,6.11
2022-12-05T17:14:32.691Z,6.06
2022-12-05T17:17:18.326Z,6.12
2022-12-05T17:20:01.471Z,6.10
2022-12-05T17:22:44.574Z,6.05
2022-12-05T17:25:32.636Z,6.17
2022-12-05T17:28:15.843Z,6.23
2022-12-05T17:31:00.518Z,6.27
2022-12-05T17:33:43.691Z,6.30
2022-12-05T17:36:26.698Z,6.29
2022-12-05T17:39:10.022Z,6.35
2022-12-05T17:41:53.152Z,6.36
2022-12-05T17:44:36.362Z,6.36
2022-12-05T17:47:20.742Z,6.51
2022-12-05T17:50:04.073Z,6.50
2022-12-05T17:52:47.275Z,6.63
2022-12-05T17:55:31.040Z,6.60
2022-12-05T17:58:15.274Z,6.77
2022-12-05T18:00:58.537Z,6.70
2022-12-05T18:03:43.217Z,6.68
2022-12-05T18:06:28.878Z,6.72
2022-12-05T18:09:11.940Z,6.78
2022-12-05T18:11:56.586Z,6.45
2022-12-05T18:14:39.630Z,6.68
2022-12-05T18:17:23.419Z,6.65
2022-12-05T18:20:10.847Z,6.69
2022-12-05T18:22:54.877Z,6.46
2022-12-05T18:25:37.993Z,6.70
2022-12-05T18:28:21.137Z,6.78
2022-12-05T18:31:05.996Z,6.87
2022-12-05T18:33:49.225Z,6.58
2022-12-05T18:36:33.802Z,6.60
2022-12-05T18:39:16.974Z,6.60
2022-12-05T18:42:00.065Z,6.79
2022-12-05T18:44:43.258Z,6.74
2022-12-05T18:47:26.395Z,6.75
2022-12-05T18:50:10.273Z,6.90
2022-12-05T18:52:55.124Z,6.99
2022-12-05T18:56:04.622Z,6.76
2022-12-05T18:58:41.185Z,6.87
2022-12-05T19:01:24.800Z,6.92
2022-12-05T19:04:08.855Z,6.93
2022-12-05T19:06:53.785Z,6.61
2022-12-05T19:09:38.309Z,6.73
2022-12-05T19:12:21.726Z,6.93
2022-12-05T19:15:05.293Z,7.03
2022-12-05T19:17:48.332Z,6.96
2022-12-05T19:20:31.400Z,7.00
2022-12-05T19:23:14.473Z,7.04
2022-12-05T19:26:00.960Z,6.98
2022-12-05T19:28:44.120Z,6.94
2022-12-05T19:31:28.940Z,6.93
2022-12-05T19:34:12.644Z,6.92
2022-12-05T19:36:55.970Z,6.82
2022-12-05T19:39:39.363Z,6.73
2022-12-05T19:42:23.908Z,6.64
2022-12-05T19:45:10.312Z,6.70
2022-12-05T19:47:54.634Z,6.76
2022-12-05T19:50:37.688Z,6.73
2022-12-05T19:53:20.760Z,6.80
2022-12-05T19:56:05.066Z,6.75
2022-12-05T19:58:51.040Z,6.73
2022-12-05T20:01:35.849Z,6.64
2022-12-05T20:04:19.201Z,6.52
2022-12-05T20:07:02.409Z,6.54
2022-12-05T20:09:45.626Z,6.62
2022-12-05T20:12:28.868Z,6.60
2022-12-05T20:15:13.666Z,6.57
2022-12-05T20:17:56.759Z,6.51
2022-12-05T20:20:39.879Z,6.53
2022-12-05T20:23:23.003Z,6.56
2022-12-05T20:26:08.182Z,6.48
2022-12-05T20:28:51.491Z,6.50
2022-12-05T20:31:37.742Z,6.49
2022-12-05T20:34:20.862Z,6.42
2022-12-05T20:37:04.128Z,6.44
2022-12-05T20:39:47.204Z,6.41
2022-12-05T20:42:30.534Z,6.35
2022-12-05T20:45:13.808Z,6.31
2022-12-05T20:47:59.170Z,6.33
2022-12-05T20:50:42.574Z,6.42
2022-12-05T20:53:25.635Z,6.36
2022-12-05T20:56:10.960Z,6.30
2022-12-05T20:58:56.533Z,6.31
2022-12-05T21:01:40.185Z,6.28
2022-12-05T21:04:24.926Z,6.25
2022-12-05T21:07:08.000Z,6.25
2022-12-05T21:09:50.985Z,6.22
2022-12-05T21:12:34.011Z,6.13
2022-12-05T21:15:17.272Z,6.15
2022-12-05T21:18:00.372Z,6.14
2022-12-05T21:20:44.864Z,6.13
2022-12-05T21:23:28.162Z,6.12
2022-12-05T21:26:14.013Z,6.16
2022-12-05T21:28:57.914Z,6.14
2022-12-05T21:31:42.816Z,6.07
2022-12-05T21:34:25.979Z,6.10
2022-12-05T21:37:10.948Z,6.05
2022-12-05T21:39:54.021Z,6.05
2022-12-05T21:42:37.147Z,6.04
2022-12-05T21:45:20.298Z,6.07
2022-12-05T21:48:03.551Z,6.07
2022-12-05T21:50:46.546Z,6.04
2022-12-05T21:53:30.987Z,6.01
2022-12-05T21:56:16.616Z,5.98
2022-12-05T21:58:59.616Z,5.87
2022-12-05T22:01:42.782Z,5.79
2022-12-05T22:04:26.887Z,5.76
2022-12-05T22:07:09.873Z,5.63
2022-12-05T22:09:54.710Z,5.55
2022-12-05T22:12:37.794Z,5.54
2022-12-05T22:15:20.795Z,5.40
2022-12-05T22:18:03.808Z,5.45
2022-12-05T22:20:46.852Z,5.50
2022-12-05T22:23:30.256Z,5.56
2022-12-05T22:26:17.230Z,5.70
2022-12-05T22:29:00.289Z,5.78
2022-12-05T22:31:43.368Z,5.84
2022-12-05T22:34:26.432Z,5.86
2022-12-05T22:37:09.452Z,5.88
2022-12-05T22:39:52.542Z,5.76
2022-12-05T22:42:37.077Z,5.70
2022-12-05T22:45:20.152Z,5.63
2022-12-05T22:48:03.200Z,5.64
2022-12-05T22:50:50.305Z,5.69
2022-12-05T22:53:34.042Z,5.51
2022-12-05T22:56:19.016Z,5.52
2022-12-05T22:59:03.468Z,5.55
2022-12-05T23:01:46.579Z,5.46
2022-12-05T23:04:29.780Z,5.55
2022-12-05T23:07:12.934Z,5.59
2022-12-05T23:09:56.135Z,5.62
2022-12-05T23:12:39.790Z,5.62
2022-12-05T23:15:24.217Z,5.63
2022-12-05T23:18:07.408Z,5.71
2022-12-05T23:20:50.469Z,5.84
2022-12-05T23:23:33.507Z,5.89
2022-12-05T23:26:17.406Z,5.75
2022-12-05T23:29:00.492Z,5.87
2022-12-05T23:31:44.987Z,5.99
2022-12-05T23:34:28.012Z,6.06
2022-12-05T23:37:11.113Z,6.07
2022-12-05T23:39:54.099Z,6.05
2022-12-05T23:42:37.132Z,5.94
2022-12-05T23:45:20.238Z,5.85
2022-12-05T23:48:04.975Z,5.84
2022-12-05T23:50:58.536Z,5.78
2022-12-05T23:53:43.371Z,5.70
2022-12-05T23:56:28.717Z,5.47
2022-12-05T23:59:12.199Z,5.30
